createdAt,value
2023-02-04T00:01:37.147Z,102160.97
2023-02-04T00:04:22.295Z,102175.66
2023-02-04T00:07:07.846Z,102160.66
2023-02-04T00:09:52.818Z,102174.16
2023-02-04T00:12:38.222Z,102168.50
2023-02-04T00:15:23.677Z,102173.13
2023-02-04T00:18:11.948Z,102170.09
2023-02-04T00:20:57.201Z,102168.69
2023-02-04T00:23:42.237Z,102179.38
2023-02-04T00:26:27.383Z,102182.94
2023-02-04T00:29:13.037Z,102193.75
2023-02-04T00:31:58.304Z,102195.75
2023-02-04T00:34:43.724Z,102204.53
2023-02-04T00:37:28.758Z,102208.97
2023-02-04T00:40:13.875Z,102217.84
2023-02-04T00:42:59.719Z,102223.59
2023-02-04T00:45:44.630Z,102215.03
2023-02-04T00:48:29.881Z,102226.94
2023-02-04T00:51:15.306Z,102224.31
2023-02-04T00:54:00.579Z,102227.94
2023-02-04T00:56:45.999Z,102229.25
2023-02-04T00:59:30.949Z,102235.63
2023-02-04T01:02:18.323Z,102231.91
2023-02-04T01:05:03.658Z,102237.84
2023-02-04T01:07:49.093Z,102247.91
2023-02-04T01:10:34.579Z,102259.63
2023-02-04T01:13:20.023Z,102264.00
2023-02-04T01:16:05.716Z,102269.31
2023-02-04T01:18:50.605Z,102275.72
2023-02-04T01:21:35.577Z,102270.88
2023-02-04T01:24:20.510Z,102271.63
2023-02-04T01:27:05.533Z,102284.91
2023-02-04T01:29:50.577Z,102284.81
2023-02-04T01:32:36.111Z,102293.09
2023-02-04T01:35:21.078Z,102296.25
2023-02-04T01:38:06.005Z,102297.94
2023-02-04T01:40:51.108Z,102308.03
2023-02-04T01:43:36.356Z,102315.41
2023-02-04T01:46:21.856Z,102325.69
2023-02-04T01:49:07.258Z,102324.88
2023-02-04T01:51:52.550Z,102326.56
2023-02-04T01:54:37.797Z,102329.56
2023-02-04T01:57:22.889Z,102325.31
2023-02-04T02:00:17.771Z,102319.06
2023-02-04T02:03:03.033Z,102317.00
2023-02-04T02:05:50.902Z,102325.94
2023-02-04T02:08:37.393Z,102330.16
2023-02-04T02:11:22.402Z,102334.03
2023-02-04T02:14:08.140Z,102339.47
2023-02-04T02:16:53.821Z,102343.91
2023-02-04T02:19:41.027Z,102342.13
2023-02-04T02:22:42.253Z,102349.06
2023-02-04T02:25:27.664Z,102348.25
2023-02-04T02:28:18.510Z,102354.06
2023-02-04T02:31:04.198Z,102352.00
2023-02-04T02:33:49.408Z,102361.22
2023-02-04T02:36:34.778Z,102362.38
2023-02-04T02:39:19.908Z,102375.31
2023-02-04T02:42:05.209Z,102390.34
2023-02-04T02:44:51.766Z,102400.50
2023-02-04T02:47:36.791Z,102399.41
2023-02-04T02:50:26.058Z,102393.88
2023-02-04T02:53:17.099Z,102401.69
2023-02-04T02:56:02.798Z,102398.81
2023-02-04T02:58:48.071Z,102405.75
2023-02-04T03:01:33.808Z,102410.25
2023-02-04T03:04:20.176Z,102404.56
2023-02-04T03:07:05.777Z,102405.53
2023-02-04T03:09:51.126Z,102404.25
2023-02-04T03:12:37.172Z,102413.75
2023-02-04T03:15:22.217Z,102411.25
2023-02-04T03:18:07.773Z,102409.69
2023-02-04T03:20:53.390Z,102401.09
2023-02-04T03:23:38.881Z,102399.50
2023-02-04T03:26:25.143Z,102405.25
2023-02-04T03:29:11.081Z,102427.16
2023-02-04T03:31:56.407Z,102430.53
2023-02-04T03:34:41.511Z,102426.66
2023-02-04T03:37:26.553Z,102430.22
2023-02-04T03:40:12.956Z,102446.41
2023-02-04T03:42:58.071Z,102443.84
2023-02-04T03:45:45.634Z,102445.25
2023-02-04T03:48:31.125Z,102453.50
2023-02-04T03:51:16.364Z,102456.88
2023-02-04T03:54:01.490Z,102447.13
2023-02-04T03:56:46.704Z,102455.91
2023-02-04T03:59:31.503Z,102466.06
2023-02-04T04:02:16.450Z,102460.03
2023-02-04T04:05:01.365Z,102460.94
2023-02-04T04:07:47.122Z,102467.63
2023-02-04T04:10:32.668Z,102489.38
2023-02-04T04:13:18.096Z,102477.78
2023-02-04T04:16:03.816Z,102482.94
2023-02-04T04:18:48.800Z,102488.25
2023-02-04T04:21:34.222Z,102482.63
2023-02-04T04:24:19.454Z,102490.34
2023-02-04T04:27:04.299Z,102503.38
2023-02-04T04:29:49.730Z,102502.22
2023-02-04T04:32:34.876Z,102504.06
2023-02-04T04:35:20.008Z,102504.94
2023-02-04T04:38:05.272Z,102495.28
2023-02-04T04:40:50.815Z,102497.16
2023-02-04T04:43:36.149Z,102497.41
2023-02-04T04:46:21.530Z,102508.53
2023-02-04T04:49:07.096Z,102513.53
2023-02-04T04:51:52.125Z,102522.03
2023-02-04T04:54:37.168Z,102520.09
2023-02-04T04:57:22.773Z,102532.16
2023-02-04T05:00:08.742Z,102538.72
2023-02-04T05:02:54.209Z,102542.13
2023-02-04T05:05:39.525Z,102554.13
2023-02-04T05:08:24.983Z,102554.56
2023-02-04T05:11:10.420Z,102553.94
2023-02-04T05:13:55.457Z,102558.78
2023-02-04T05:16:40.624Z,102560.16
2023-02-04T05:19:25.770Z,102561.50
2023-02-04T05:22:11.241Z,102560.34
2023-02-04T05:24:56.403Z,102572.56
2023-02-04T05:27:41.664Z,102577.25
2023-02-04T05:30:27.167Z,102579.75
2023-02-04T05:33:12.700Z,102588.88
2023-02-04T05:35:58.012Z,102594.91
2023-02-04T05:38:43.823Z,102599.50
2023-02-04T05:41:29.018Z,102600.47
2023-02-04T05:44:14.251Z,102615.19
2023-02-04T05:46:59.320Z,102615.41
2023-02-04T05:49:44.766Z,102623.91
2023-02-04T05:52:30.074Z,102614.41
2023-02-04T05:55:14.992Z,102630.91
2023-02-04T05:57:59.894Z,102625.56
2023-02-04T06:00:45.171Z,102626.34
2023-02-04T06:03:31.580Z,102623.78
2023-02-04T06:06:17.018Z,102616.75
2023-02-04T06:09:02.370Z,102621.56
2023-02-04T06:11:47.769Z,102624.66
2023-02-04T06:14:33.049Z,102607.97
2023-02-04T06:17:18.023Z,102610.75
2023-02-04T06:20:03.767Z,102617.88
2023-02-04T06:22:48.928Z,102616.88
2023-02-04T06:25:34.556Z,102616.75
2023-02-04T06:28:20.028Z,102614.28
2023-02-04T06:31:05.722Z,102622.75
2023-02-04T06:33:50.649Z,102627.22
2023-02-04T06:36:35.522Z,102618.75
2023-02-04T06:39:20.924Z,102614.19
2023-02-04T06:42:06.423Z,102615.72
2023-02-04T06:44:52.466Z,102616.88
2023-02-04T06:47:38.016Z,102619.22
2023-02-04T06:50:23.073Z,102629.00
2023-02-04T06:53:08.860Z,102632.44
2023-02-04T06:55:54.187Z,102631.75
2023-02-04T06:58:39.677Z,102633.81
2023-02-04T07:01:25.006Z,102647.13
2023-02-04T07:04:10.191Z,102659.31
2023-02-04T07:06:55.522Z,102670.97
2023-02-04T07:09:40.989Z,102678.19
2023-02-04T07:12:26.345Z,102683.81
2023-02-04T07:15:11.479Z,102681.78
2023-02-04T07:17:56.227Z,102695.13
2023-02-04T07:20:41.230Z,102704.25
2023-02-04T07:23:26.089Z,102692.44
2023-02-04T07:26:10.928Z,102708.97
2023-02-04T07:28:56.493Z,102715.97
2023-02-04T07:31:41.853Z,102716.25
2023-02-04T07:34:27.117Z,102719.69
2023-02-04T07:37:12.569Z,102718.41
2023-02-04T07:39:57.674Z,102717.34
2023-02-04T07:42:42.933Z,102718.44
2023-02-04T07:45:28.374Z,102731.44
2023-02-04T07:48:13.862Z,102735.13
2023-02-04T07:50:59.297Z,102730.84
2023-02-04T07:53:44.651Z,102736.13
2023-02-04T07:56:29.660Z,102729.88
2023-02-04T07:59:15.200Z,102731.38
2023-02-04T08:02:00.247Z,102743.06
2023-02-04T08:04:46.095Z,102746.56
2023-02-04T08:07:31.234Z,102748.09
2023-02-04T08:10:16.875Z,102756.31
2023-02-04T08:13:02.182Z,102757.72
2023-02-04T08:15:47.600Z,102749.22
2023-02-04T08:18:32.879Z,102745.47
2023-02-04T08:21:23.512Z,102744.91
2023-02-04T08:24:08.876Z,102739.22
2023-02-04T08:26:54.047Z,102744.38
2023-02-04T08:29:39.789Z,102741.91
2023-02-04T08:32:24.920Z,102745.41
2023-02-04T08:35:10.027Z,102737.38
2023-02-04T08:37:55.292Z,102735.50
2023-02-04T08:40:40.895Z,102733.16
2023-02-04T08:43:26.894Z,102730.69
2023-02-04T08:46:12.152Z,102725.09
2023-02-04T08:48:57.437Z,102719.84
2023-02-04T08:51:42.729Z,102711.16
2023-02-04T08:54:28.033Z,102723.06
2023-02-04T08:57:13.465Z,102707.00
2023-02-04T08:59:58.742Z,102713.03
2023-02-04T09:02:44.581Z,102706.53
2023-02-04T09:05:29.821Z,102696.66
2023-02-04T09:08:14.581Z,102695.19
2023-02-04T09:11:00.041Z,102689.69
2023-02-04T09:13:45.460Z,102697.59
2023-02-04T09:16:31.270Z,102680.91
2023-02-04T09:19:16.316Z,102691.09
2023-02-04T09:22:01.290Z,102700.03
2023-02-04T09:24:46.026Z,102713.94
2023-02-04T09:27:31.547Z,102718.53
2023-02-04T09:30:17.161Z,102733.19
2023-02-04T09:33:02.408Z,102720.59
2023-02-04T09:35:47.265Z,102712.19
2023-02-04T09:38:32.703Z,102708.38
2023-02-04T09:41:18.156Z,102698.66
2023-02-04T09:44:04.920Z,102705.69
2023-02-04T09:46:53.711Z,102675.84
2023-02-04T09:49:39.469Z,102673.16
2023-02-04T09:52:27.410Z,102677.63
2023-02-04T09:55:18.165Z,102668.41
2023-02-04T09:58:05.964Z,102671.03
2023-02-04T10:01:09.136Z,102659.03
2023-02-04T10:03:56.463Z,102643.63
2023-02-04T10:06:43.522Z,102644.72
2023-02-04T10:09:28.970Z,102633.41
2023-02-04T10:12:14.545Z,102639.50
2023-02-04T10:14:59.793Z,102614.00
2023-02-04T10:17:47.605Z,102595.50
2023-02-04T10:20:33.186Z,102584.22
2023-02-04T10:23:18.533Z,102576.69
2023-02-04T10:26:04.519Z,102574.50
2023-02-04T10:28:49.518Z,102579.00
2023-02-04T10:31:40.536Z,102582.59
2023-02-04T10:34:36.302Z,102553.06
2023-02-04T10:37:22.568Z,102525.44
2023-02-04T10:40:31.980Z,102517.22
2023-02-04T10:43:22.013Z,102472.56
2023-02-04T10:46:07.381Z,102473.28
2023-02-04T10:48:52.583Z,102521.75
2023-02-04T10:51:38.087Z,102494.53
2023-02-04T10:54:27.829Z,102482.41
2023-02-04T10:57:30.251Z,102528.72
2023-02-04T11:00:17.686Z,102511.91
2023-02-04T11:03:12.118Z,102522.84
2023-02-04T11:05:59.296Z,102553.47
2023-02-04T11:08:44.768Z,102552.56
2023-02-04T11:11:30.178Z,102530.28
2023-02-04T11:14:27.595Z,102507.78
2023-02-04T11:17:20.588Z,102532.53
2023-02-04T11:20:17.247Z,102502.06
2023-02-04T11:23:27.067Z,102475.75
2023-02-04T11:26:18.360Z,102475.00
2023-02-04T11:29:04.446Z,102440.59
2023-02-04T11:31:50.039Z,102427.88
2023-02-04T11:34:53.442Z,102418.97
2023-02-04T11:37:41.314Z,102451.59
2023-02-04T11:40:35.596Z,102450.97
2023-02-04T11:43:21.948Z,102441.97
2023-02-04T11:46:16.124Z,102424.91
2023-02-04T11:49:01.205Z,102417.88
2023-02-04T11:51:46.542Z,102440.22
2023-02-04T11:54:31.644Z,102452.44
2023-02-04T11:57:17.412Z,102423.69
2023-02-04T12:00:02.760Z,102402.66
2023-02-04T12:02:50.782Z,102357.66
2023-02-04T12:05:44.405Z,102379.28
2023-02-04T12:08:35.423Z,102372.97
2023-02-04T12:11:28.104Z,102325.06
2023-02-04T12:14:17.735Z,102349.00
2023-02-04T12:17:16.337Z,102368.56
2023-02-04T12:20:01.783Z,102402.84
2023-02-04T12:22:46.660Z,102420.59
2023-02-04T12:25:32.334Z,102432.63
2023-02-04T12:28:17.571Z,102399.56
2023-02-04T12:31:03.172Z,102404.28
2023-02-04T12:33:48.146Z,102315.22
2023-02-04T12:36:33.153Z,102362.75
2023-02-04T12:39:18.462Z,102415.34
2023-02-04T12:42:04.048Z,102401.31
2023-02-04T12:44:49.240Z,102360.84
2023-02-04T12:47:34.203Z,102324.53
2023-02-04T12:50:21.009Z,102364.09
2023-02-04T12:53:05.978Z,102347.91
2023-02-04T12:55:51.740Z,102382.16
2023-02-04T12:58:37.081Z,102419.19
2023-02-04T13:01:22.354Z,102409.97
2023-02-04T13:04:07.837Z,102424.22
2023-02-04T13:06:53.149Z,102367.00
2023-02-04T13:09:38.624Z,102363.66
2023-02-04T13:12:24.019Z,102393.13
2023-02-04T13:15:10.309Z,102360.63
2023-02-04T13:17:55.752Z,102410.00
2023-02-04T13:20:41.321Z,102367.72
2023-02-04T13:23:26.637Z,102423.44
2023-02-04T13:26:11.894Z,102434.22
2023-02-04T13:28:57.395Z,102365.88
2023-02-04T13:31:43.042Z,102378.50
2023-02-04T13:34:28.755Z,102349.09
2023-02-04T13:37:14.206Z,102411.16
2023-02-04T13:39:59.160Z,102442.09
2023-02-04T13:42:44.553Z,102395.06
2023-02-04T13:45:30.722Z,102434.09
2023-02-04T13:48:16.677Z,102481.16
2023-02-04T13:51:02.145Z,102463.69
2023-02-04T13:53:47.105Z,102488.28
2023-02-04T13:56:32.396Z,102478.06
2023-02-04T13:59:17.254Z,102494.53
2023-02-04T14:02:02.791Z,102495.59
2023-02-04T14:04:47.938Z,102434.88
2023-02-04T14:07:33.110Z,102488.94
2023-02-04T14:10:18.592Z,102508.66
2023-02-04T14:13:03.586Z,102529.09
2023-02-04T14:15:49.026Z,102519.44
2023-02-04T14:18:34.401Z,102543.41
2023-02-04T14:21:19.344Z,102532.38
2023-02-04T14:24:04.971Z,102584.66
2023-02-04T14:26:50.670Z,102584.13
2023-02-04T14:29:39.075Z,102605.53
2023-02-04T14:32:24.425Z,102637.66
2023-02-04T14:35:09.585Z,102632.25
2023-02-04T14:37:54.799Z,102602.88
2023-02-04T14:40:39.553Z,102614.28
2023-02-04T14:43:24.620Z,102635.84
2023-02-04T14:46:09.841Z,102629.41
2023-02-04T14:48:55.205Z,102629.19
2023-02-04T14:51:41.256Z,102641.78
2023-02-04T14:54:26.547Z,102657.59
2023-02-04T14:57:12.228Z,102677.19
2023-02-04T14:59:57.575Z,102669.56
2023-02-04T15:02:43.538Z,102682.88
2023-02-04T15:05:29.036Z,102656.53
2023-02-04T15:08:14.253Z,102643.06
2023-02-04T15:10:59.431Z,102635.66
2023-02-04T15:13:44.768Z,102653.59
2023-02-04T15:16:30.749Z,102646.97
2023-02-04T15:19:17.506Z,102639.72
2023-02-04T15:22:02.583Z,102638.31
2023-02-04T15:24:47.980Z,102656.56
2023-02-04T15:27:32.872Z,102657.19
2023-02-04T15:30:17.915Z,102675.69
2023-02-04T15:33:03.161Z,102674.00
2023-02-04T15:35:48.422Z,102677.69
2023-02-04T15:38:35.167Z,102673.72
2023-02-04T15:41:20.404Z,102670.44
2023-02-04T15:44:06.091Z,102668.25
2023-02-04T15:46:50.965Z,102678.88
2023-02-04T15:49:36.388Z,102675.00
2023-02-04T15:52:25.256Z,102695.38
2023-02-04T15:55:10.779Z,102699.53
2023-02-04T15:57:56.201Z,102708.44
2023-02-04T16:00:44.321Z,102698.66
2023-02-04T16:03:29.424Z,102665.91
2023-02-04T16:06:14.277Z,102670.47
2023-02-04T16:09:00.047Z,102698.06
2023-02-04T16:11:45.474Z,102718.44
2023-02-04T16:14:30.725Z,102725.47
2023-02-04T16:17:15.656Z,102729.72
2023-02-04T16:20:01.123Z,102717.34
2023-02-04T16:22:46.642Z,102722.59
2023-02-04T16:25:32.052Z,102729.09
2023-02-04T16:28:17.673Z,102743.53
2023-02-04T16:31:02.786Z,102748.16
2023-02-04T16:33:48.326Z,102748.31
2023-02-04T16:36:33.372Z,102759.69
2023-02-04T16:39:18.936Z,102758.72
2023-02-04T16:42:07.686Z,102763.59
2023-02-04T16:44:52.739Z,102769.25
2023-02-04T16:47:38.273Z,102763.38
2023-02-04T16:50:23.536Z,102778.34
2023-02-04T16:53:08.522Z,102784.63
2023-02-04T16:55:53.735Z,102792.31
2023-02-04T16:58:39.066Z,102803.28
2023-02-04T17:01:24.761Z,102817.34
2023-02-04T17:04:10.028Z,102836.00
2023-02-04T17:06:55.465Z,102834.53
2023-02-04T17:09:40.924Z,102839.13
2023-02-04T17:12:27.408Z,102842.84
2023-02-04T17:15:12.539Z,102860.94
2023-02-04T17:17:57.795Z,102863.06
2023-02-04T17:20:43.199Z,102851.56
2023-02-04T17:23:28.604Z,102859.63
2023-02-04T17:26:13.719Z,102855.38
2023-02-04T17:28:59.024Z,102856.72
2023-02-04T17:31:44.365Z,102867.63
2023-02-04T17:34:29.607Z,102870.56
2023-02-04T17:37:14.375Z,102862.50
2023-02-04T17:39:59.904Z,102859.16
2023-02-04T17:42:45.377Z,102856.28
2023-02-04T17:45:31.395Z,102853.03
2023-02-04T17:48:17.794Z,102844.22
2023-02-04T17:51:03.642Z,102850.13
2023-02-04T17:53:48.964Z,102837.53
2023-02-04T17:56:34.549Z,102843.34
2023-02-04T17:59:19.798Z,102849.81
2023-02-04T18:02:22.834Z,102859.06
2023-02-04T18:05:14.432Z,102865.88
2023-02-04T18:08:05.251Z,102863.44
2023-02-04T18:10:53.205Z,102871.69
2023-02-04T18:13:38.230Z,102869.69
2023-02-04T18:16:27.843Z,102882.50
2023-02-04T18:19:26.105Z,102875.69
2023-02-04T18:22:18.158Z,102875.78
2023-02-04T18:25:12.819Z,102878.78
2023-02-04T18:28:02.096Z,102880.25
2023-02-04T18:30:53.120Z,102871.16
2023-02-04T18:33:38.371Z,102879.59
2023-02-04T18:36:24.239Z,102876.47
2023-02-04T18:39:18.585Z,102874.75
2023-02-04T18:42:15.632Z,102878.91
2023-02-04T18:45:19.954Z,102882.53
2023-02-04T18:48:20.449Z,102896.06
2023-02-04T18:51:23.449Z,102907.81
2023-02-04T18:54:20.907Z,102918.06
2023-02-04T18:57:12.425Z,102907.63
2023-02-04T19:00:23.634Z,102915.09
2023-02-04T19:03:24.979Z,102917.00
2023-02-04T19:06:25.606Z,102923.47
2023-02-04T19:09:10.799Z,102938.91
2023-02-04T19:12:16.801Z,102946.22
2023-02-04T19:15:14.370Z,102948.72
2023-02-04T19:18:17.679Z,102960.41
2023-02-04T19:21:21.096Z,102970.81
2023-02-04T19:24:15.696Z,102962.75
2023-02-04T19:27:01.855Z,102965.06
2023-02-04T19:29:48.657Z,102968.41
2023-02-04T19:32:57.924Z,102967.22
2023-02-04T19:35:43.692Z,102968.81
2023-02-04T19:38:40.769Z,102976.59
2023-02-04T19:41:30.407Z,102962.91
2023-02-04T19:44:15.397Z,102955.31
2023-02-04T19:47:19.739Z,102951.22
2023-02-04T19:50:13.947Z,102945.63
2023-02-04T19:53:03.174Z,102959.72
2023-02-04T19:55:52.222Z,102970.03
2023-02-04T19:58:42.169Z,102962.50
2023-02-04T20:01:27.050Z,102961.13
2023-02-04T20:04:20.619Z,102958.09
2023-02-04T20:07:21.739Z,102961.00
2023-02-04T20:10:06.537Z,102954.88
2023-02-04T20:12:58.937Z,102952.34
2023-02-04T20:15:44.349Z,102952.88
2023-02-04T20:18:29.713Z,102954.63
2023-02-04T20:21:14.577Z,102958.88
2023-02-04T20:24:00.667Z,102954.78
2023-02-04T20:26:45.739Z,102953.13
2023-02-04T20:29:34.444Z,102956.22
2023-02-04T20:32:20.932Z,102959.66
2023-02-04T20:35:09.236Z,102956.47
2023-02-04T20:37:59.214Z,102958.50
2023-02-04T20:40:44.794Z,102949.16
2023-02-04T20:43:34.226Z,102960.56
2023-02-04T20:46:25.429Z,102952.38
2023-02-04T20:49:22.140Z,102941.00
2023-02-04T20:52:42.271Z,102932.44
2023-02-04T20:55:34.633Z,102925.16
2023-02-04T20:58:27.317Z,102928.84
2023-02-04T21:01:35.342Z,102922.44
2023-02-04T21:04:29.971Z,102922.72
2023-02-04T21:07:22.874Z,102924.75
2023-02-04T21:10:08.361Z,102918.38
2023-02-04T21:12:56.215Z,102911.59
2023-02-04T21:15:41.460Z,102909.66
2023-02-04T21:18:27.177Z,102914.28
2023-02-04T21:21:14.029Z,102910.53
2023-02-04T21:23:59.127Z,102916.84
2023-02-04T21:26:44.736Z,102915.53
2023-02-04T21:29:30.149Z,102921.28
2023-02-04T21:32:15.670Z,102931.66
2023-02-04T21:35:00.916Z,102933.69
2023-02-04T21:37:46.242Z,102933.44
2023-02-04T21:40:32.463Z,102936.22
2023-02-04T21:43:17.610Z,102939.47
2023-02-04T21:46:02.596Z,102943.00
2023-02-04T21:48:47.985Z,102943.13
2023-02-04T21:51:33.100Z,102951.59
2023-02-04T21:54:18.566Z,102951.59
2023-02-04T21:57:03.859Z,102949.16
2023-02-04T21:59:49.213Z,102951.09
2023-02-04T22:02:40.549Z,102955.53
2023-02-04T22:05:26.152Z,102962.63
2023-02-04T22:08:11.681Z,102954.63
2023-02-04T22:10:56.842Z,102965.09
2023-02-04T22:13:42.280Z,102965.47
2023-02-04T22:16:27.579Z,102965.47
2023-02-04T22:19:12.872Z,102963.00
2023-02-04T22:21:58.211Z,102958.63
2023-02-04T22:24:43.663Z,102948.31
2023-02-04T22:27:28.708Z,102936.47
2023-02-04T22:30:16.089Z,102941.25
2023-02-04T22:33:01.583Z,102937.84
2023-02-04T22:35:47.104Z,102924.78
2023-02-04T22:38:32.652Z,102932.31
2023-02-04T22:41:17.956Z,102938.13
2023-02-04T22:44:03.124Z,102942.25
2023-02-04T22:46:48.426Z,102951.19
2023-02-04T22:49:33.820Z,102959.59
2023-02-04T22:52:18.675Z,102955.69
2023-02-04T22:55:04.460Z,102950.94
2023-02-04T22:57:49.433Z,102948.91
2023-02-04T23:00:34.749Z,102969.22
2023-02-04T23:03:20.367Z,102971.66
2023-02-04T23:06:06.141Z,102956.13
2023-02-04T23:08:51.608Z,102969.09
2023-02-04T23:11:36.845Z,102972.06
2023-02-04T23:14:22.075Z,102974.84
2023-02-04T23:17:07.993Z,102979.75
2023-02-04T23:19:53.417Z,102983.09
2023-02-04T23:22:38.921Z,102988.47
2023-02-04T23:25:24.395Z,102983.44
2023-02-04T23:28:09.586Z,102970.09
2023-02-04T23:30:55.126Z,102973.84
2023-02-04T23:33:40.118Z,102977.47
2023-02-04T23:36:25.075Z,102980.44
2023-02-04T23:39:10.237Z,102971.25
2023-02-04T23:41:55.985Z,102965.25
2023-02-04T23:44:41.138Z,102966.34
2023-02-04T23:47:26.027Z,102962.69
2023-02-04T23:50:11.459Z,102966.56
2023-02-04T23:52:56.316Z,102970.03
2023-02-04T23:55:41.154Z,102976.31
2023-02-04T23:58:26.564Z,102974.53
